默认 日期 大小 文件数 浏览量 最新下载 xml
isolde磁力链接相关资源由用户搜索指令自动获取,结果来源于网络,本站不存储任何资料,亦不承担任何责任,请于24小时内删除,搜索到281个磁力,用时0ms。
    {"www.shareitall.se.nfo": 545, "Tristan.Isolde.2006.DVDrip.Swesub.XviD.AC3-Magic.avi": 1720963072, "Tristan.Isolde.2006.DVDrip.Swesub.XviD.AC3-Magic.jpg": 43942}
创建时间: 2019-01-31 04:13:37 大小:1.6 GB 文件数量:3 热度:3 最近下载:2022-11-12 10:52:10
    ... ": 5202, "Richard Wagner - Tristan und Isolde - CD1.flac": 305171073}, "CD2": {"Richard ... ": 6092, "Richard Wagner - Tristan und Isolde - CD2.flac": 311929566}, "CD3": {"Richard ... ": 4758, "Richard Wagner - Tristan und Isolde - CD3.flac": 145844207}, "CD4": {" ...
创建时间: 2019-02-05 16:44:51 大小:1.05 GB 文件数量:20 热度:6 最近下载:2025-03-27 19:43:01
    ... , "Richard Wagner - Tristan und Isolde (Metropolitan Opera Orchestra feat. conductor_ ... , "Richard Wagner - Tristan und Isolde (Metropolitan Opera Orchestra feat. conductor_ ... , "Richard Wagner - Tristan und Isolde (Metropolitan Opera Orchestra feat. conductor_ ...
创建时间: 2019-02-07 21:54:16 大小:657.6 MB 文件数量:21 热度:7 最近下载:2025-02-06 07:42:01
    {"Tristan.and.Isolde.2006.BluRay.720p.DTS.2Audio.x264-CHD.mkv": 7018155487}
创建时间: 2019-02-13 21:05:10 大小:6.54 GB 文件数量:1 热度:3 最近下载:2022-11-12 09:37:57
    ... 2795, "Richard Wagner - Tristan und Isolde - Cluytens - Grob-Prandl, Lustig, ... 264823619, "Richard Wagner - Tristan und Isolde - Cluytens - Grob-Prandl, Lustig, Milinkovic ... 174060538, "Richard Wagner - Tristan und Isolde - Cluytens - Grob-Prandl, Lustig, ...
创建时间: 2019-02-15 12:30:02 大小:621.13 MB 文件数量:19 热度:4 最近下载:2025-02-24 10:53:04
    {"ti_funxd.in.avi": 2423648256, "ti_funxd.in.srt": 1426, "www.torrent.to - Die besten und schnellsten Bit Torrent Downloads im Netz.url": 77}
创建时间: 2019-02-21 22:16:37 大小:2.26 GB 文件数量:3 热度:1 最近下载:2021-06-17 16:25:58
    ... sie noch (Isolde).ape": 23418276, "Act I- Tristan! - Isolde! (Isolde, Tristan). ... ape": 33931724, "Act II- Isolde! - Geliebte! (Tristan, Isolde).ape": 52870340 ... hernieder, Nacht der Liebe (Tristan, Isolde).ape": 20802036}, "CD 4": ...
创建时间: 2019-02-24 01:58:42 大小:945.84 MB 文件数量:48 热度:3 最近下载:2025-01-15 06:56:04
    {"AUDIO_TS": {"ATS_01_0.BUP": 4096, "ATS_01_0.IFO": 4096, "ATS_01_1.AOB": 1073741824, "ATS_01_2.AOB": 1073741824, "ATS_01_3.AOB": 1073741824, "ATS_01_4.AOB": 1042475008, "AUDIO_PP.IFO": 131072, "AUDIO_SV.BUP": 4096, "AUDIO_SV.IFO": 4096, "AUDIO_SV.VOB": ...
创建时间: 2019-02-26 11:30:24 大小:3.97 GB 文件数量:15 热度:2 最近下载:2025-03-03 09:09:02
    ... pdf": 16229853, "Wagner - Tristan and Isolde - Vocal Score.pdf": 58768693, " ... !.ape": 25024272, "[10] - Tristan! - Isolde! - Treuloser Holder!.ape": 28584716, "[04 ... mich sterben!.ape": 20072872, "[03] - Isolde! Geliebte! - Tristan! Geliebter!.ape": 41605760 ...
创建时间: 2019-02-27 05:53:30 大小:842.04 MB 文件数量:39 热度:5 最近下载:2025-03-10 20:45:02
    {"Demonoid.txt": 47, "Miles,_Rosalind_-_Isolde_(v1.1)_[html].rar": 301542}
创建时间: 2019-03-19 22:02:19 大小:294.52 KB 文件数量:2 热度:7 最近下载:2022-04-08 06:42:21
    {"Main.mkv": 9351284580, "Title.mkv": 23604917, "BDBack.jpg": 307476, "BDFront.jpg": 133096}
创建时间: 2019-03-24 21:08:02 大小:8.73 GB 文件数量:4 热度:15 最近下载:2025-07-11 10:28:02
    ... .flac": 174474359, "Wagner - Tristan und Isolde - Act-1.LOG": 753}, "CD ... .flac": 147150596, "Wagner - Tristan und Isolde - Act-2.LOG": 753}, "CD ... .flac": 152360456, "Wagner - Tristan und Isolde - Act-3.LOG": 753}, "Scans ...
创建时间: 2019-03-30 03:58:29 大小:470.7 MB 文件数量:14 热度:7 最近下载:2025-01-09 04:08:02
    ... .kinokopilka.ru).avi": 2344894464, "Tristan + Isolde (www.kinokopilka.ru).jpg": 55640 ...
创建时间: 2019-04-21 16:54:48 大小:2.18 GB 文件数量:5 热度:5 最近下载:2022-04-16 05:43:12
    {"www.TankaNer.com.nfo": 62, "Tristan.Och.Isolde.2006.Swesub.DVDRip.Xvid-Elionora.avi": 733698048}
创建时间: 2019-04-23 05:22:13 大小:699.71 MB 文件数量:2 热度:4 最近下载:2021-06-17 16:25:58
    {"Isolde Touch [SOS] [FLAC] [CodeTempest]": {"[ART]": {" ... Static-Always Waiting.flac": 33449537, "Isolde Touch [Secretary Of Sensation] [2016 ...
创建时间: 2019-04-24 02:54:39 大小:174.52 MB 文件数量:21 热度:3 最近下载:2021-06-17 16:25:58
    ... ": 7928, "Richard Wagner - Tristan und Isolde - CD1.flac": 332524917}, "CD2": {"Richard ... ": 7384, "Richard Wagner - Tristan und Isolde - CD2.flac": 279441387}, "CD3": {" ... ": 7928, "Richard Wagner - Tristan und Isolde - CD3.flac": 302378877}, "Covers": {" ...
创建时间: 2019-05-18 20:21:52 大小:879.15 MB 文件数量:18 热度:5 最近下载:2024-12-05 16:55:01
    {"1.jpg": 19749, "2.jpg": 57261, "Cd1.ape": 235033426, "Cd1.cue": 1925, "Cd2.ape": 240599938, "Cd2.cue": 2034, "Cd3.ape": 219951522, "Cd3.cue": 1816, "cd1.LOG": 861, "cd2.LOG": 861, "cd3.LOG": 861, "tracks.txt": 6842, "Cd1.ape.cue": 1925, "Cd2.ape.cue": ...
创建时间: 2019-05-20 21:21:31 大小:663.45 MB 文件数量:15 热度:5 最近下载:2024-12-25 20:58:04
    ... , Chorus o - Tristan und Isolde.cue": 1677, "Richard Wagner; ... , Chorus o - Tristan und Isolde.flac": 167832388}, "CD 2": ... Chorus o - Tristan und Isolde.cue": 2256, "Richard Wagner; ... Melchior, Chorus o - Tristan und Isolde.flac": 152523615}, "booklet": {" ...
创建时间: 2019-06-08 13:14:17 大小:434.65 MB 文件数量:16 热度:8 最近下载:2025-01-18 08:41:05
    ... 54654432, "wagner-tristan-und-isolde-wwv-90-karl-bohm.jpg ... ": 129964372, "01-07-Akt_I_Szene_5_Tristan-Isolde-Treuloser_Holder-SMR.flac": 68457061, " ... 232882613, "02-07-Akt_II_Szene_2_Doch_unsre_Liebe_heisst_sie_nicht_Tristan_und-Isolde-SMR.flac": 24173528}
创建时间: 2019-06-12 03:24:08 大小:2.32 GB 文件数量:30 热度:12 最近下载:2025-05-04 00:29:03
    ... .txt": 77, "Tristan.and.Isolde.2006.720p.BluRay.x264-x0r. ... jpg": 1246877, "Tristan.and.Isolde.2006.720p.BluRay.x264-x0r ... .mkv": 3194963950, "Tristan.and.Isolde.2006.720p.BluRay.x264-x0r ... fanart.jpg": 370005, "Tristan.and.Isolde.2006.720p.BluRay.x264-x0r ...
创建时间: 2019-06-13 04:28:16 大小:2.99 GB 文件数量:6 热度:4 最近下载:2021-06-17 16:25:58